createdAt,value
2019-02-28T00:01:11.706Z,70.85
2019-02-28T00:03:20.259Z,70.98
2019-02-28T00:05:26.618Z,71.06
2019-02-28T00:07:33.306Z,71.04
2019-02-28T00:09:39.959Z,71.06
2019-02-28T00:11:46.607Z,70.98
2019-02-28T00:13:55.830Z,71.00
2019-02-28T00:16:03.254Z,71.08
2019-02-28T00:18:09.951Z,70.96
2019-02-28T00:20:16.635Z,71.15
2019-02-28T00:22:23.309Z,71.11
2019-02-28T00:24:30.694Z,70.78
2019-02-28T00:26:37.425Z,70.97
2019-02-28T00:28:44.075Z,70.86
2019-02-28T00:30:50.675Z,70.89
2019-02-28T00:32:59.382Z,70.64
2019-02-28T00:35:13.001Z,70.59
2019-02-28T00:37:15.859Z,70.38
2019-02-28T00:39:22.470Z,70.42
2019-02-28T00:41:29.132Z,70.28
2019-02-28T00:43:35.718Z,69.97
2019-02-28T00:45:42.349Z,70.06
2019-02-28T00:47:49.018Z,70.25
2019-02-28T00:49:56.498Z,70.24
2019-02-28T00:52:03.311Z,70.02
2019-02-28T00:54:09.968Z,69.72
2019-02-28T00:56:17.532Z,69.64
2019-02-28T00:58:28.585Z,69.57
2019-02-28T01:00:33.272Z,69.59
2019-02-28T01:02:39.936Z,69.74
2019-02-28T01:04:46.685Z,69.53
2019-02-28T01:06:53.359Z,69.19
2019-02-28T01:09:00.090Z,69.12
2019-02-28T01:11:06.852Z,69.09
2019-02-28T01:13:13.517Z,69.13
2019-02-28T01:15:20.244Z,69.15
2019-02-28T01:17:27.621Z,69.20
2019-02-28T01:19:34.289Z,69.33
2019-02-28T01:21:41.027Z,69.43
2019-02-28T01:23:47.703Z,69.49
2019-02-28T01:25:54.365Z,69.71
2019-02-28T01:28:01.111Z,69.60
2019-02-28T01:30:11.586Z,69.73
2019-02-28T01:32:18.188Z,69.55
2019-02-28T01:34:24.759Z,69.72
2019-02-28T01:36:32.458Z,69.81
2019-02-28T01:38:38.925Z,69.85
2019-02-28T01:40:45.504Z,69.91
2019-02-28T01:42:54.846Z,69.86
2019-02-28T01:45:00.344Z,69.89
2019-02-28T01:47:06.988Z,69.99
2019-02-28T01:49:13.690Z,69.92
2019-02-28T01:51:20.354Z,69.96
2019-02-28T01:53:27.090Z,69.90
2019-02-28T01:55:33.853Z,69.97
2019-02-28T01:57:43.868Z,69.95
2019-02-28T01:59:48.806Z,69.54
2019-02-28T02:01:55.488Z,69.29
2019-02-28T02:04:02.004Z,69.29
2019-02-28T02:06:09.679Z,69.30
2019-02-28T02:08:16.335Z,69.22
2019-02-28T02:10:23.470Z,69.25
2019-02-28T02:12:31.820Z,69.34
2019-02-28T02:14:38.561Z,69.47
2019-02-28T02:16:45.174Z,69.56
2019-02-28T02:18:51.831Z,69.73
2019-02-28T02:21:00.232Z,69.68
2019-02-28T02:23:06.970Z,69.76
2019-02-28T02:25:13.947Z,69.83
2019-02-28T02:27:20.778Z,69.86
2019-02-28T02:29:27.537Z,69.62
2019-02-28T02:31:34.272Z,69.50
2019-02-28T02:33:40.969Z,69.55
2019-02-28T02:35:47.634Z,69.51
2019-02-28T02:37:54.295Z,69.39
2019-02-28T02:40:00.981Z,69.27
2019-02-28T02:42:11.362Z,69.20
2019-02-28T02:44:17.067Z,69.11
2019-02-28T02:46:23.856Z,68.92
2019-02-28T02:48:30.516Z,68.61
2019-02-28T02:50:37.171Z,68.47
2019-02-28T02:52:44.309Z,68.30
2019-02-28T02:54:52.243Z,68.03
2019-02-28T02:56:59.272Z,67.82
2019-02-28T02:59:05.968Z,67.50
2019-02-28T03:01:12.703Z,67.49
2019-02-28T03:03:19.356Z,67.33
2019-02-28T03:05:26.126Z,67.32
2019-02-28T03:07:32.838Z,67.15
2019-02-28T03:09:43.379Z,67.13
2019-02-28T03:11:47.910Z,66.89
2019-02-28T03:13:54.576Z,66.78
2019-02-28T03:16:01.246Z,66.86
2019-02-28T03:18:07.926Z,66.50
2019-02-28T03:20:15.746Z,66.38
2019-02-28T03:22:28.384Z,66.28
2019-02-28T03:24:30.832Z,66.06
2019-02-28T03:26:41.356Z,66.04
2019-02-28T03:28:46.893Z,65.63
2019-02-28T03:30:53.652Z,65.54
2019-02-28T03:33:00.515Z,65.49
2019-02-28T03:35:08.254Z,65.39
2019-02-28T03:37:15.027Z,65.36
2019-02-28T03:39:24.553Z,65.32
2019-02-28T03:41:30.248Z,64.96
2019-02-28T03:43:42.484Z,65.01
2019-02-28T03:45:45.381Z,64.92
2019-02-28T03:47:58.444Z,64.83
2019-02-28T03:50:00.594Z,64.75
2019-02-28T03:52:07.311Z,64.62
2019-02-28T03:54:13.962Z,64.28
2019-02-28T03:56:20.706Z,64.27
2019-02-28T03:58:27.446Z,64.42
2019-02-28T04:00:34.409Z,64.22
2019-02-28T04:02:41.084Z,63.85
2019-02-28T04:04:50.150Z,63.85
2019-02-28T04:06:57.283Z,64.04
2019-02-28T04:09:08.576Z,63.89
2019-02-28T04:11:13.526Z,64.14
2019-02-28T04:13:20.449Z,63.98
2019-02-28T04:15:27.125Z,64.23
2019-02-28T04:17:33.880Z,64.21
2019-02-28T04:19:40.519Z,64.29
2019-02-28T04:21:47.858Z,64.45
2019-02-28T04:23:54.577Z,64.68
2019-02-28T04:26:01.318Z,64.95
2019-02-28T04:28:09.001Z,65.28
2019-02-28T04:30:16.683Z,65.52
2019-02-28T04:32:27.566Z,65.87
2019-02-28T04:34:31.806Z,66.10
2019-02-28T04:36:38.462Z,66.34
2019-02-28T04:38:45.126Z,66.65
2019-02-28T04:40:51.744Z,66.79
2019-02-28T04:42:58.339Z,67.04
2019-02-28T04:45:07.905Z,67.16
2019-02-28T04:47:14.669Z,67.19
2019-02-28T04:49:22.681Z,67.45
2019-02-28T04:51:29.612Z,67.71
2019-02-28T04:53:36.358Z,67.80
2019-02-28T04:55:43.023Z,67.88
2019-02-28T04:57:51.595Z,68.08
2019-02-28T04:59:57.993Z,68.38
2019-02-28T05:02:04.667Z,68.56
2019-02-28T05:04:11.345Z,68.70
2019-02-28T05:06:18.351Z,68.84
2019-02-28T05:08:26.445Z,69.04
2019-02-28T05:10:33.190Z,69.26
2019-02-28T05:12:40.963Z,69.58
2019-02-28T05:14:47.981Z,69.69
2019-02-28T05:16:54.709Z,70.04
2019-02-28T05:19:01.534Z,70.31
2019-02-28T05:21:08.872Z,70.65
2019-02-28T05:23:15.815Z,70.92
2019-02-28T05:25:22.576Z,70.99
2019-02-28T05:27:34.851Z,71.36
2019-02-28T05:29:37.607Z,71.50
2019-02-28T05:31:44.354Z,71.75
2019-02-28T05:33:52.022Z,71.68
2019-02-28T05:36:00.291Z,71.71
2019-02-28T05:38:07.070Z,71.73
2019-02-28T05:40:15.649Z,71.65
2019-02-28T05:42:23.353Z,71.43
2019-02-28T05:44:30.794Z,71.37
2019-02-28T05:46:37.470Z,71.25
2019-02-28T05:48:44.231Z,71.19
2019-02-28T05:50:53.327Z,71.01
2019-02-28T05:53:00.298Z,70.86
2019-02-28T05:55:09.554Z,70.67
2019-02-28T05:57:16.240Z,70.41
2019-02-28T05:59:26.161Z,69.93
2019-02-28T06:01:31.332Z,68.81
2019-02-28T06:03:38.024Z,67.74
2019-02-28T06:05:46.422Z,67.30
2019-02-28T06:07:53.097Z,66.32
2019-02-28T06:09:59.869Z,65.95
2019-02-28T06:12:09.328Z,65.84
2019-02-28T06:14:15.067Z,66.10
2019-02-28T06:16:21.759Z,66.13
2019-02-28T06:18:32.669Z,65.73
2019-02-28T06:20:36.779Z,65.43
2019-02-28T06:22:43.462Z,64.84
2019-02-28T06:24:50.522Z,63.52
2019-02-28T06:26:57.249Z,61.78
2019-02-28T06:29:04.976Z,60.53
2019-02-28T06:31:14.334Z,59.39
2019-02-28T06:33:21.288Z,58.51
2019-02-28T06:35:28.205Z,58.54
2019-02-28T06:37:35.414Z,58.44
2019-02-28T06:39:43.238Z,58.25
2019-02-28T06:41:49.928Z,57.85
2019-02-28T06:43:57.679Z,57.04
2019-02-28T06:46:04.398Z,54.13
2019-02-28T06:48:11.012Z,50.55
2019-02-28T06:50:18.178Z,46.70
2019-02-28T06:52:25.306Z,43.45
2019-02-28T06:54:32.789Z,40.30
2019-02-28T06:56:39.522Z,37.84
2019-02-28T06:58:46.123Z,39.49
2019-02-28T07:00:52.792Z,42.16
2019-02-28T07:03:03.254Z,44.00
2019-02-28T07:05:08.286Z,45.72
2019-02-28T07:07:15.024Z,47.57
2019-02-28T07:09:21.773Z,49.28
2019-02-28T07:11:28.447Z,50.47
2019-02-28T07:13:39.040Z,51.41
2019-02-28T07:15:43.491Z,51.63
2019-02-28T07:17:50.159Z,49.29
2019-02-28T07:20:01.365Z,44.28
2019-02-28T07:22:05.139Z,41.07
2019-02-28T07:24:11.808Z,40.37
2019-02-28T07:26:18.902Z,40.88
2019-02-28T07:28:26.254Z,41.94
2019-02-28T07:30:32.918Z,42.80
2019-02-28T07:32:39.615Z,43.15
2019-02-28T07:34:46.286Z,42.41
2019-02-28T07:36:52.884Z,41.99
2019-02-28T07:39:01.322Z,41.05
2019-02-28T07:41:09.534Z,39.71
2019-02-28T07:43:16.215Z,38.93
2019-02-28T07:45:22.912Z,38.40
2019-02-28T07:47:29.575Z,36.48
2019-02-28T07:49:37.014Z,33.40
2019-02-28T07:51:43.705Z,31.96
2019-02-28T07:53:50.457Z,31.95
2019-02-28T07:55:57.114Z,34.06
2019-02-28T07:58:03.884Z,35.68
2019-02-28T08:00:25.024Z,31.98
2019-02-28T08:02:31.694Z,30.22
2019-02-28T08:04:38.472Z,29.30
2019-02-28T08:06:45.134Z,31.31
2019-02-28T08:08:52.885Z,33.53
2019-02-28T08:10:59.741Z,36.05
2019-02-28T08:13:06.538Z,38.05
2019-02-28T08:15:30.722Z,40.91
2019-02-28T08:17:40.647Z,41.68
2019-02-28T08:19:45.790Z,42.07
2019-02-28T08:21:52.490Z,42.48
2019-02-28T08:23:59.194Z,42.73
2019-02-28T08:26:05.863Z,43.57
2019-02-28T08:28:12.523Z,43.87
2019-02-28T08:30:28.396Z,44.10
2019-02-28T08:32:35.090Z,43.96
2019-02-28T08:34:41.754Z,44.40
2019-02-28T08:36:48.437Z,44.65
2019-02-28T08:38:55.115Z,45.05
2019-02-28T08:41:01.770Z,45.55
2019-02-28T08:43:10.524Z,45.56
2019-02-28T08:45:17.315Z,45.83
2019-02-28T08:47:23.982Z,46.34
2019-02-28T08:49:30.740Z,46.69
2019-02-28T08:51:37.413Z,46.90
2019-02-28T08:53:44.003Z,46.86
2019-02-28T08:55:50.692Z,46.45
2019-02-28T08:58:04.330Z,47.01
2019-02-28T09:00:18.155Z,46.98
2019-02-28T09:02:24.857Z,47.20
2019-02-28T09:04:40.782Z,47.11
2019-02-28T09:06:41.011Z,47.25
2019-02-28T09:08:48.340Z,47.34
2019-02-28T09:10:55.910Z,47.07
2019-02-28T09:13:07.748Z,47.01
2019-02-28T09:15:14.950Z,47.19
2019-02-28T09:17:21.634Z,46.38
2019-02-28T09:19:28.286Z,46.54
2019-02-28T09:21:34.979Z,46.48
2019-02-28T09:23:41.669Z,46.44
2019-02-28T09:25:48.397Z,46.27
2019-02-28T09:27:55.105Z,46.46
2019-02-28T09:30:01.772Z,46.43
2019-02-28T09:32:10.248Z,46.37
2019-02-28T09:34:16.811Z,46.49
2019-02-28T09:36:23.502Z,46.76
2019-02-28T09:38:30.170Z,46.54
2019-02-28T09:40:36.854Z,46.37
2019-02-28T09:42:44.549Z,46.09
2019-02-28T09:44:52.271Z,46.20
2019-02-28T09:46:58.973Z,45.64
2019-02-28T09:49:05.854Z,45.79
2019-02-28T09:51:12.577Z,45.35
2019-02-28T09:53:19.204Z,45.84
2019-02-28T09:55:25.951Z,45.66
2019-02-28T09:57:32.614Z,45.61
2019-02-28T09:59:39.315Z,45.53
2019-02-28T10:01:46.057Z,45.25
2019-02-28T10:03:55.498Z,45.43
2019-02-28T10:06:02.129Z,45.43
2019-02-28T10:08:08.792Z,45.46
2019-02-28T10:10:29.930Z,45.48
2019-02-28T10:12:39.403Z,45.81
2019-02-28T10:14:44.998Z,45.92
2019-02-28T10:16:52.646Z,45.97
2019-02-28T10:19:00.104Z,45.96
2019-02-28T10:21:06.777Z,45.95
2019-02-28T10:23:13.436Z,45.91
2019-02-28T10:25:20.130Z,46.02
2019-02-28T10:27:27.798Z,46.00
2019-02-28T10:29:34.480Z,45.80
2019-02-28T10:31:41.174Z,45.65
2019-02-28T10:33:49.527Z,45.91
2019-02-28T10:35:56.239Z,45.56
2019-02-28T10:38:02.944Z,45.45
2019-02-28T10:40:17.939Z,45.31
2019-02-28T10:42:26.415Z,45.35
2019-02-28T10:44:33.109Z,45.50
2019-02-28T10:46:39.795Z,44.68
2019-02-28T10:48:50.817Z,44.06
2019-02-28T10:50:54.852Z,44.17
2019-02-28T10:53:05.630Z,44.02
2019-02-28T10:55:13.475Z,44.09
2019-02-28T10:57:20.164Z,44.16
2019-02-28T10:59:26.922Z,43.12
2019-02-28T11:01:33.598Z,43.76
2019-02-28T11:03:40.360Z,43.96
2019-02-28T11:05:47.297Z,44.04
2019-02-28T11:07:54.227Z,43.66
2019-02-28T11:10:02.100Z,44.36
2019-02-28T11:12:09.179Z,44.80
2019-02-28T11:14:16.984Z,44.72
2019-02-28T11:16:24.471Z,44.91
2019-02-28T11:18:32.137Z,45.25
2019-02-28T11:20:40.612Z,45.69
2019-02-28T11:22:47.298Z,45.49
2019-02-28T11:24:54.239Z,45.43
2019-02-28T11:27:00.907Z,45.19
2019-02-28T11:29:07.688Z,45.26
2019-02-28T11:31:16.377Z,45.75
2019-02-28T11:33:23.420Z,45.65
2019-02-28T11:35:30.709Z,45.67
2019-02-28T11:37:37.681Z,45.64
2019-02-28T11:39:44.335Z,45.45
2019-02-28T11:41:52.654Z,45.28
2019-02-28T11:43:59.443Z,45.21
2019-02-28T11:46:07.106Z,44.41
2019-02-28T11:48:20.148Z,44.43
2019-02-28T11:50:26.082Z,44.62
2019-02-28T11:52:32.745Z,44.37
2019-02-28T11:54:39.455Z,44.48
2019-02-28T11:56:46.124Z,44.57
2019-02-28T11:58:52.858Z,45.17
2019-02-28T12:00:59.559Z,45.13
2019-02-28T12:03:06.506Z,44.46
2019-02-28T12:05:15.690Z,44.59
2019-02-28T12:07:21.647Z,44.71
2019-02-28T12:09:28.318Z,44.37
2019-02-28T12:11:36.484Z,44.18
2019-02-28T12:13:43.385Z,44.87
2019-02-28T12:15:50.062Z,44.67
2019-02-28T12:17:56.725Z,43.94
2019-02-28T12:20:03.939Z,43.50
2019-02-28T12:22:12.102Z,42.90
2019-02-28T12:24:19.090Z,43.23
2019-02-28T12:26:25.854Z,43.88
2019-02-28T12:28:35.266Z,44.40
2019-02-28T12:30:41.078Z,43.93
2019-02-28T12:32:47.769Z,44.30
2019-02-28T12:34:54.385Z,44.39
2019-02-28T12:37:01.042Z,44.27
2019-02-28T12:39:09.046Z,43.26
2019-02-28T12:41:15.729Z,43.08
2019-02-28T12:43:22.388Z,43.03
2019-02-28T12:45:32.825Z,43.23
2019-02-28T12:47:41.558Z,43.80
2019-02-28T12:49:47.873Z,43.01
2019-02-28T12:51:54.583Z,40.54
2019-02-28T12:54:01.240Z,39.69
2019-02-28T12:56:07.976Z,40.24
2019-02-28T12:58:14.680Z,40.67
2019-02-28T13:00:28.334Z,40.59
2019-02-28T13:02:35.011Z,41.07
2019-02-28T13:04:41.777Z,40.78
2019-02-28T13:06:48.516Z,40.66
2019-02-28T13:08:55.205Z,40.74
2019-02-28T13:11:04.480Z,40.61
2019-02-28T13:13:10.250Z,40.97
2019-02-28T13:15:18.992Z,41.05
2019-02-28T13:17:28.322Z,40.89
2019-02-28T13:19:35.057Z,39.87
2019-02-28T13:21:43.661Z,39.73
2019-02-28T13:23:50.101Z,40.11
2019-02-28T13:25:59.974Z,40.62
2019-02-28T13:28:06.338Z,41.45
2019-02-28T13:30:22.564Z,42.04
2019-02-28T13:32:29.222Z,42.47
2019-02-28T13:34:35.890Z,42.98
2019-02-28T13:36:42.584Z,43.22
2019-02-28T13:38:49.515Z,43.44
2019-02-28T13:40:57.703Z,43.72
2019-02-28T13:43:04.507Z,44.20
2019-02-28T13:45:22.188Z,44.43
2019-02-28T13:47:23.009Z,44.51
2019-02-28T13:49:29.697Z,44.25
2019-02-28T13:51:40.442Z,44.34
2019-02-28T13:53:44.742Z,44.59
2019-02-28T13:55:53.002Z,44.71
2019-02-28T13:57:59.831Z,44.29
2019-02-28T14:00:20.766Z,44.33
2019-02-28T14:02:29.776Z,44.71
2019-02-28T14:04:35.911Z,44.97
2019-02-28T14:06:43.066Z,44.85
2019-02-28T14:08:49.828Z,44.96
2019-02-28T14:10:56.579Z,44.96
2019-02-28T14:13:04.026Z,45.05
2019-02-28T14:15:17.862Z,45.07
2019-02-28T14:17:24.591Z,45.09
2019-02-28T14:19:31.342Z,44.97
2019-02-28T14:21:39.644Z,44.78
2019-02-28T14:23:46.390Z,44.72
2019-02-28T14:25:54.119Z,44.91
2019-02-28T14:28:01.472Z,45.24
2019-02-28T14:30:19.689Z,45.37
2019-02-28T14:32:26.454Z,45.48
2019-02-28T14:34:33.163Z,45.49
2019-02-28T14:36:41.726Z,45.43
2019-02-28T14:38:49.947Z,45.52
2019-02-28T14:40:56.618Z,45.56
2019-02-28T14:43:03.288Z,45.90
2019-02-28T14:45:22.940Z,46.13
2019-02-28T14:47:29.729Z,46.43
2019-02-28T14:49:36.386Z,46.60
2019-02-28T14:51:43.048Z,46.57
2019-02-28T14:53:50.097Z,46.61
2019-02-28T14:55:58.373Z,47.00
2019-02-28T14:58:05.155Z,47.19
2019-02-28T15:00:22.588Z,46.96
2019-02-28T15:02:29.260Z,46.82
2019-02-28T15:04:35.926Z,46.54
2019-02-28T15:06:42.636Z,46.51
2019-02-28T15:08:50.970Z,46.47
2019-02-28T15:10:57.784Z,46.52
2019-02-28T15:13:05.153Z,46.38
2019-02-28T15:15:18.086Z,46.49
2019-02-28T15:17:24.223Z,46.79
2019-02-28T15:19:30.977Z,46.59
2019-02-28T15:21:42.367Z,46.46
2019-02-28T15:23:46.070Z,46.58
2019-02-28T15:25:54.905Z,46.71
2019-02-28T15:28:01.706Z,47.02
2019-02-28T15:30:17.944Z,47.17
2019-02-28T15:32:25.656Z,47.28
2019-02-28T15:34:32.380Z,47.20
2019-02-28T15:36:39.048Z,47.37
2019-02-28T15:38:45.739Z,47.67
2019-02-28T15:40:52.419Z,47.73
2019-02-28T15:42:59.158Z,47.84
2019-02-28T15:45:09.227Z,48.13
2019-02-28T15:47:15.951Z,48.23
2019-02-28T15:49:24.487Z,48.46
2019-02-28T15:51:31.174Z,48.53
2019-02-28T15:53:37.903Z,48.84
2019-02-28T15:55:44.646Z,48.91
2019-02-28T15:57:51.411Z,49.29
2019-02-28T15:59:58.655Z,49.47
2019-02-28T16:02:06.306Z,49.93
2019-02-28T16:04:13.779Z,50.25
2019-02-28T16:06:20.662Z,50.49
2019-02-28T16:08:28.818Z,50.79
2019-02-28T16:10:38.210Z,50.89
2019-02-28T16:12:46.587Z,51.17
2019-02-28T16:14:53.312Z,51.36
2019-02-28T16:17:03.582Z,51.64
2019-02-28T16:19:10.394Z,51.64
2019-02-28T16:21:17.053Z,51.85
2019-02-28T16:23:27.570Z,51.99
2019-02-28T16:25:39.852Z,52.32
2019-02-28T16:27:46.582Z,52.18
2019-02-28T16:29:55.809Z,52.36
2019-02-28T16:32:01.642Z,52.60
2019-02-28T16:34:08.540Z,52.87
2019-02-28T16:36:15.945Z,53.04
2019-02-28T16:38:22.725Z,53.23
2019-02-28T16:40:32.846Z,53.23
2019-02-28T16:42:39.539Z,53.41
2019-02-28T16:44:46.371Z,53.46
2019-02-28T16:46:53.082Z,53.65
2019-02-28T16:48:59.772Z,53.73
2019-02-28T16:51:06.499Z,53.61
2019-02-28T16:53:16.147Z,53.55
2019-02-28T16:55:21.563Z,53.76
2019-02-28T16:57:28.294Z,53.94
2019-02-28T16:59:34.959Z,54.06
2019-02-28T17:01:41.660Z,54.01
2019-02-28T17:03:48.303Z,54.43
2019-02-28T17:05:55.061Z,54.15
2019-02-28T17:08:01.824Z,54.13
2019-02-28T17:10:16.488Z,54.40
2019-02-28T17:12:27.228Z,54.54
2019-02-28T17:14:33.181Z,54.45
2019-02-28T17:16:41.493Z,54.62
2019-02-28T17:18:48.241Z,54.41
2019-02-28T17:20:55.111Z,54.42
2019-02-28T17:23:02.192Z,54.27
2019-02-28T17:25:09.298Z,54.13
2019-02-28T17:27:27.450Z,54.12
2019-02-28T17:29:38.549Z,54.27
2019-02-28T17:31:48.213Z,54.60
2019-02-28T17:33:54.839Z,54.81
2019-02-28T17:36:02.603Z,54.81
2019-02-28T17:38:09.333Z,55.33
2019-02-28T17:40:18.597Z,54.89
2019-02-28T17:42:25.274Z,55.01
2019-02-28T17:44:44.866Z,54.90
2019-02-28T17:47:00.586Z,54.96
2019-02-28T17:49:31.162Z,55.12
2019-02-28T17:51:45.288Z,55.16
2019-02-28T17:54:23.188Z,55.02
2019-02-28T17:57:07.587Z,55.08
2019-02-28T17:59:27.594Z,54.97
2019-02-28T18:01:44.086Z,54.83
2019-02-28T18:04:16.293Z,54.82
2019-02-28T18:06:55.600Z,54.67
2019-02-28T18:09:17.923Z,54.41
2019-02-28T18:12:01.545Z,54.57
2019-02-28T18:14:27.842Z,54.17
2019-02-28T18:16:54.563Z,54.18
2019-02-28T18:19:18.082Z,54.18
2019-02-28T18:21:47.299Z,54.50
2019-02-28T18:24:20.710Z,54.54
2019-02-28T18:27:04.964Z,54.62
2019-02-28T18:29:18.710Z,54.72
2019-02-28T18:31:25.674Z,55.21
2019-02-28T18:33:33.030Z,55.40
2019-02-28T18:35:39.689Z,55.64
2019-02-28T18:37:46.383Z,55.71
2019-02-28T18:39:53.133Z,55.84
2019-02-28T18:41:59.868Z,55.79
2019-02-28T18:44:07.708Z,55.53
2019-02-28T18:46:15.498Z,55.49
2019-02-28T18:48:23.705Z,55.72
2019-02-28T18:50:30.459Z,55.68
2019-02-28T18:52:37.122Z,55.48
2019-02-28T18:54:43.853Z,55.63
2019-02-28T18:56:50.746Z,55.38
2019-02-28T18:58:59.030Z,55.31
2019-02-28T19:01:06.163Z,55.49
2019-02-28T19:03:13.251Z,55.57
2019-02-28T19:05:19.916Z,55.67
2019-02-28T19:07:26.587Z,55.83
2019-02-28T19:09:33.303Z,56.15
2019-02-28T19:11:40.028Z,55.94
2019-02-28T19:13:46.688Z,55.84
2019-02-28T19:15:53.434Z,54.56
2019-02-28T19:18:00.191Z,54.41
2019-02-28T19:20:10.448Z,53.75
2019-02-28T19:22:17.133Z,53.56
2019-02-28T19:24:23.787Z,53.69
2019-02-28T19:26:31.492Z,53.20
2019-02-28T19:28:38.261Z,52.46
2019-02-28T19:30:44.913Z,52.60
2019-02-28T19:32:51.710Z,52.53
2019-02-28T19:34:58.501Z,52.67
2019-02-28T19:37:05.149Z,52.98
2019-02-28T19:39:11.817Z,53.14
2019-02-28T19:41:18.556Z,53.44
2019-02-28T19:43:25.214Z,53.23
2019-02-28T19:45:42.139Z,53.22
2019-02-28T19:47:49.856Z,53.44
2019-02-28T19:49:56.613Z,53.26
2019-02-28T19:52:03.414Z,53.40
2019-02-28T19:54:10.089Z,53.18
2019-02-28T19:56:16.815Z,53.18
2019-02-28T19:58:24.946Z,53.39
2019-02-28T20:00:31.619Z,53.45
2019-02-28T20:02:39.439Z,53.40
2019-02-28T20:04:46.103Z,53.21
2019-02-28T20:06:52.898Z,53.11
2019-02-28T20:08:59.818Z,53.34
2019-02-28T20:11:08.417Z,53.32
2019-02-28T20:13:15.222Z,53.16
2019-02-28T20:15:24.522Z,53.18
2019-02-28T20:17:31.168Z,52.89
2019-02-28T20:19:37.838Z,52.88
2019-02-28T20:21:46.138Z,52.77
2019-02-28T20:23:52.784Z,52.85
2019-02-28T20:25:59.637Z,52.91
2019-02-28T20:28:07.583Z,52.88
2019-02-28T20:30:23.365Z,52.77
2019-02-28T20:32:30.145Z,52.25
2019-02-28T20:34:36.884Z,52.56
2019-02-28T20:36:45.556Z,52.38
2019-02-28T20:38:53.677Z,52.43
2019-02-28T20:41:00.431Z,52.41
2019-02-28T20:43:07.569Z,52.43
2019-02-28T20:45:14.463Z,52.18
2019-02-28T20:47:22.308Z,52.08
2019-02-28T20:49:29.080Z,52.46
2019-02-28T20:51:39.880Z,52.75
2019-02-28T20:53:48.053Z,52.86
2019-02-28T20:55:54.774Z,53.28
2019-02-28T20:58:01.531Z,53.35
2019-02-28T21:00:17.201Z,53.52
2019-02-28T21:02:25.878Z,53.68
2019-02-28T21:04:32.572Z,53.76
2019-02-28T21:06:40.710Z,53.71
2019-02-28T21:08:48.895Z,53.88
2019-02-28T21:10:55.655Z,54.15
2019-02-28T21:13:02.310Z,53.85
2019-02-28T21:15:12.211Z,54.12
2019-02-28T21:17:18.883Z,53.87
2019-02-28T21:19:25.604Z,54.09
2019-02-28T21:21:33.368Z,54.29
2019-02-28T21:23:40.050Z,54.43
2019-02-28T21:25:46.723Z,54.54
2019-02-28T21:27:53.444Z,54.57
2019-02-28T21:30:00.350Z,54.76
2019-02-28T21:32:08.662Z,55.10
2019-02-28T21:34:15.384Z,55.15
2019-02-28T21:36:22.139Z,55.19
2019-02-28T21:38:29.961Z,55.37
2019-02-28T21:40:36.837Z,55.29
2019-02-28T21:42:43.933Z,55.54
2019-02-28T21:44:50.608Z,55.72
2019-02-28T21:46:57.367Z,55.74
2019-02-28T21:49:04.257Z,55.51
2019-02-28T21:51:10.962Z,55.39
2019-02-28T21:53:17.727Z,55.70
2019-02-28T21:55:24.506Z,55.66
2019-02-28T21:57:31.156Z,55.71
2019-02-28T21:59:39.465Z,55.80
2019-02-28T22:01:46.130Z,55.92
2019-02-28T22:03:52.860Z,56.00
2019-02-28T22:05:59.576Z,56.13
2019-02-28T22:08:06.284Z,55.99
2019-02-28T22:10:16.867Z,56.13
2019-02-28T22:12:23.515Z,56.01
2019-02-28T22:14:30.217Z,55.98
2019-02-28T22:16:36.992Z,56.04
2019-02-28T22:18:43.638Z,56.19
2019-02-28T22:20:50.640Z,55.91
2019-02-28T22:22:57.307Z,55.85
2019-02-28T22:25:04.662Z,55.94
2019-02-28T22:27:11.338Z,55.90
2019-02-28T22:29:17.989Z,55.96
2019-02-28T22:31:29.069Z,56.15
2019-02-28T22:33:43.940Z,56.22
2019-02-28T22:35:57.986Z,56.23
2019-02-28T22:38:04.633Z,56.37
2019-02-28T22:40:12.396Z,56.27
2019-02-28T22:42:22.459Z,56.37
2019-02-28T22:44:27.451Z,56.39
2019-02-28T22:46:34.202Z,56.53
2019-02-28T22:48:40.853Z,56.83
2019-02-28T22:50:47.580Z,57.15
2019-02-28T22:52:55.242Z,57.43
2019-02-28T22:55:03.135Z,57.75
2019-02-28T22:57:09.835Z,58.11
2019-02-28T22:59:16.536Z,58.41
2019-02-28T23:01:25.889Z,58.79
2019-02-28T23:03:34.698Z,59.18
2019-02-28T23:05:41.396Z,59.76
2019-02-28T23:07:48.048Z,60.29
2019-02-28T23:09:54.783Z,60.81
2019-02-28T23:12:01.541Z,61.22
2019-02-28T23:14:08.202Z,61.73
2019-02-28T23:16:14.854Z,62.21
2019-02-28T23:18:21.545Z,62.68
2019-02-28T23:20:28.200Z,63.26
2019-02-28T23:22:34.870Z,64.09
2019-02-28T23:24:41.547Z,64.72
2019-02-28T23:27:17.007Z,65.00
2019-02-28T23:29:25.267Z,65.40
2019-02-28T23:31:47.973Z,66.38
2019-02-28T23:34:01.329Z,66.94
2019-02-28T23:36:06.533Z,67.42
2019-02-28T23:38:13.214Z,67.75
2019-02-28T23:40:19.946Z,68.02
2019-02-28T23:42:26.608Z,68.49
2019-02-28T23:44:33.295Z,68.84
2019-02-28T23:46:39.877Z,69.02
2019-02-28T23:48:46.540Z,69.51
2019-02-28T23:50:53.292Z,69.64
2019-02-28T23:53:00.031Z,70.00
2019-02-28T23:55:09.284Z,70.13
2019-02-28T23:57:16.048Z,70.54
2019-02-28T23:59:22.709Z,70.70
